Time;durP1;ratioP1;P1;durP2;ratioP2;P2;SDS_P1;SDS_P2;PMS_P1;PMS_P2;Temp;Humidity;BMP_temperature;BMP_pressure;BME280_temperature;BME280_humidity;BME280_pressure;Samples;Min_cycle;Max_cycle;Signal;HPM_P1;HPM_P2
2022/05/06 00:01:29;;;;;;;;;;;13.20;99.90;;;;;;5074841;28;19911;-79
2022/05/06 00:03:55;;;;;;;;;;;13.10;99.90;;;;;;5075101;28;19915;-77
2022/05/06 00:06:20;;;;;;;;;;;13.10;99.90;;;;;;5074790;28;20450;-78
2022/05/06 00:08:46;;;;;;;;;;;13.10;99.90;;;;;;5075005;28;19916;-79
2022/05/06 00:11:12;;;;;;;;;;;13.00;99.90;;;;;;5056453;28;20360;-79
2022/05/06 00:13:38;;;;;;;;;;;13.00;99.90;;;;;;5074248;28;19912;-80
2022/05/06 00:16:03;;;;;;;;;;;12.80;99.90;;;;;;5056694;28;19904;-78
2022/05/06 00:18:31;;;;;;;;;;;12.70;99.90;;;;;;5074531;28;19910;-78
2022/05/06 00:20:59;;;;;;;;;;;12.80;99.90;;;;;;5074486;28;19931;-77
2022/05/06 00:23:25;;;;;;;;;;;12.70;99.90;;;;;;5074438;28;20319;-78
2022/05/06 00:25:50;;;;;;;;;;;12.60;99.90;;;;;;5074719;28;19908;-79
2022/05/06 00:28:16;;;;;;;;;;;12.70;99.90;;;;;;5074364;28;19943;-77
2022/05/06 00:30:42;;;;;;;;;;;12.70;99.90;;;;;;5074364;28;19912;-79
2022/05/06 00:33:09;;;;;;;;;;;12.70;99.90;;;;;;5074367;28;19904;-77
2022/05/06 00:35:37;;;;;;;;;;;12.60;99.90;;;;;;5074245;28;19947;-76
2022/05/06 00:38:03;;;;;;;;;;;12.50;99.90;;;;;;5073965;28;20338;-78
2022/05/06 00:40:29;;;;;;;;;;;12.60;99.90;;;;;;5073385;28;19905;-77
2022/05/06 00:42:56;;;;;;;;;;;12.60;99.90;;;;;;5073312;28;19905;-79
2022/05/06 00:45:22;;;;;;;;;;;12.50;99.90;;;;;;5073295;28;19908;-79
2022/05/06 00:47:48;;;;;;;;;;;12.30;99.90;;;;;;5073428;28;19919;-78
2022/05/06 00:50:14;;;;;;;;;;;11.90;99.90;;;;;;5073481;28;20330;-76
2022/05/06 00:52:39;;;;;;;;;;;11.80;99.90;;;;;;5073417;28;19905;-77
2022/05/06 00:55:06;;;;;;;;;;;11.70;99.90;;;;;;5073218;28;19957;-77
2022/05/06 00:57:32;;;;;;;;;;;11.50;99.90;;;;;;5073077;28;19911;-78
2022/05/06 01:00:18;;;;;;;;;;;11.50;99.90;;;;;;5073092;28;19904;-78
2022/05/06 01:02:44;;;;;;;;;;;11.50;99.90;;;;;;5073166;28;19927;-77
2022/05/06 01:05:11;;;;;;;;;;;11.50;99.90;;;;;;5072885;28;19908;-80
2022/05/06 01:07:37;;;;;;;;;;;11.60;99.90;;;;;;5072975;28;19951;-77
2022/05/06 01:10:03;;;;;;;;;;;11.80;99.90;;;;;;5073195;28;19936;-77
2022/05/06 01:12:29;;;;;;;;;;;11.90;99.90;;;;;;5072841;28;19911;-78
2022/05/06 01:14:54;;;;;;;;;;;12.00;99.90;;;;;;5072990;28;19908;-79
2022/05/06 01:17:20;;;;;;;;;;;12.00;99.90;;;;;;5072830;28;19904;-77
2022/05/06 01:19:45;;;;;;;;;;;12.00;99.90;;;;;;5073171;28;19951;-78
2022/05/06 01:22:11;;;;;;;;;;;12.00;99.90;;;;;;5072776;28;19904;-76
2022/05/06 01:24:37;;;;;;;;;;;11.70;99.90;;;;;;5071300;28;20330;-78
2022/05/06 01:27:05;;;;;;;;;;;11.40;99.90;;;;;;5054758;28;20038;-79
2022/05/06 01:29:31;;;;;;;;;;;11.20;99.90;;;;;;5054757;28;19904;-76
2022/05/06 01:31:57;;;;;;;;;;;11.20;99.90;;;;;;5072752;28;19916;-79
2022/05/06 01:34:23;;;;;;;;;;;11.40;99.90;;;;;;5072639;28;19909;-78
2022/05/06 01:36:50;;;;;;;;;;;11.80;99.90;;;;;;5072629;28;19998;-79
2022/05/06 01:39:18;;;;;;;;;;;12.20;99.90;;;;;;5028046;28;1281041;-79
2022/05/06 01:41:45;;;;;;;;;;;12.40;99.90;;;;;;5055451;28;19962;-77
2022/05/06 01:44:12;;;;;;;;;;;12.60;99.90;;;;;;5073365;28;20011;-76
2022/05/06 01:46:38;;;;;;;;;;;12.40;99.90;;;;;;5073370;28;19950;-78
2022/05/06 01:49:04;;;;;;;;;;;12.10;99.90;;;;;;5073401;28;19905;-78
2022/05/06 01:51:30;;;;;;;;;;;12.30;99.90;;;;;;5073359;28;19983;-78
2022/05/06 01:53:56;;;;;;;;;;;12.60;99.90;;;;;;5073333;28;19950;-78
2022/05/06 01:56:21;;;;;;;;;;;12.80;99.90;;;;;;5073344;28;19912;-79
2022/05/06 01:58:48;;;;;;;;;;;12.90;99.90;;;;;;5073254;28;19943;-79
2022/05/06 02:01:14;;;;;;;;;;;12.90;99.90;;;;;;5055380;28;19947;-76
2022/05/06 02:06:23;;;;;;;;;;;13.10;99.90;;;;;;5073033;28;19959;-78
2022/05/06 02:08:49;;;;;;;;;;;13.30;99.90;;;;;;5055446;28;20360;-79
2022/05/06 02:11:14;;;;;;;;;;;13.30;99.90;;;;;;5073123;28;19908;-78
2022/05/06 02:13:40;;;;;;;;;;;13.40;99.90;;;;;;5073102;28;20379;-77
2022/05/06 02:16:06;;;;;;;;;;;13.50;99.90;;;;;;5073140;28;19939;-79
2022/05/06 02:18:31;;;;;;;;;;;13.50;99.90;;;;;;5073083;28;19904;-76
2022/05/06 02:20:58;;;;;;;;;;;13.50;99.90;;;;;;5073113;28;19905;-79
2022/05/06 02:23:24;;;;;;;;;;;13.50;99.90;;;;;;5073232;28;19904;-77
2022/05/06 02:25:50;;;;;;;;;;;13.60;99.90;;;;;;5072946;28;20340;-79
2022/05/06 02:28:16;;;;;;;;;;;13.60;99.90;;;;;;5073157;28;19914;-78
2022/05/06 02:33:26;;;;;;;;;;;13.60;99.90;;;;;;5072986;28;19912;-79
2022/05/06 02:35:52;;;;;;;;;;;13.50;99.90;;;;;;5075181;28;19911;-78
2022/05/06 02:38:18;;;;;;;;;;;13.50;99.90;;;;;;5054971;28;19916;-76
2022/05/06 02:40:44;;;;;;;;;;;13.50;99.90;;;;;;5056445;28;19909;-78
2022/05/06 02:43:10;;;;;;;;;;;13.50;99.90;;;;;;5056399;28;20448;-79
2022/05/06 02:45:35;;;;;;;;;;;13.70;99.90;;;;;;5056629;28;19916;-79
2022/05/06 02:48:01;;;;;;;;;;;13.80;99.90;;;;;;5056597;28;19905;-78
2022/05/06 02:50:27;;;;;;;;;;;13.80;99.90;;;;;;5056670;28;20447;-78
2022/05/06 02:52:53;;;;;;;;;;;13.70;99.90;;;;;;5056621;28;19909;-78
2022/05/06 02:55:19;;;;;;;;;;;13.70;99.90;;;;;;5055255;28;19905;-79
2022/05/06 02:57:44;;;;;;;;;;;13.80;99.90;;;;;;5056963;28;19953;-78
2022/05/06 03:00:11;;;;;;;;;;;13.80;99.90;;;;;;5056067;28;20007;-76
2022/05/06 03:02:36;;;;;;;;;;;13.90;99.90;;;;;;5055989;28;19909;-80
2022/05/06 03:05:02;;;;;;;;;;;13.90;99.90;;;;;;5055888;28;19908;-78
2022/05/06 03:07:28;;;;;;;;;;;13.70;99.90;;;;;;5055908;28;20388;-77
2022/05/06 03:09:53;;;;;;;;;;;13.50;99.90;;;;;;5055873;28;19911;-78
2022/05/06 03:12:26;;;;;;;;;;;13.30;99.90;;;;;;5055776;28;19905;-78
2022/05/06 03:14:52;;;;;;;;;;;13.20;99.90;;;;;;5055913;28;19954;-79
2022/05/06 03:17:17;;;;;;;;;;;12.90;99.90;;;;;;5055771;28;19909;-78
2022/05/06 03:19:43;;;;;;;;;;;13.10;99.90;;;;;;5056058;28;20262;-77
2022/05/06 03:22:09;;;;;;;;;;;13.30;99.90;;;;;;5055737;28;20285;-79
2022/05/06 03:24:34;;;;;;;;;;;13.30;99.90;;;;;;5055502;28;19909;-77
2022/05/06 03:27:00;;;;;;;;;;;13.30;99.90;;;;;;5055613;28;20426;-77
2022/05/06 03:29:25;;;;;;;;;;;13.50;99.90;;;;;;5055490;28;20440;-78
2022/05/06 03:31:52;;;;;;;;;;;13.70;99.90;;;;;;5055869;28;19905;-78
2022/05/06 03:34:19;;;;;;;;;;;13.70;99.90;;;;;;5054142;28;19904;-76
2022/05/06 03:36:45;;;;;;;;;;;13.50;99.90;;;;;;5055502;28;19905;-78
2022/05/06 03:39:11;;;;;;;;;;;13.60;99.90;;;;;;5072658;28;20403;-78
2022/05/06 03:41:37;;;;;;;;;;;13.70;99.90;;;;;;5075031;28;19909;-78
2022/05/06 03:44:03;;;;;;;;;;;13.50;99.90;;;;;;5075190;28;19912;-78
2022/05/06 03:46:28;;;;;;;;;;;13.40;99.90;;;;;;5074403;28;20338;-78
2022/05/06 03:48:55;;;;;;;;;;;13.40;99.90;;;;;;5074989;28;19927;-77
2022/05/06 03:51:20;;;;;;;;;;;13.40;99.90;;;;;;5075056;28;19905;-77
2022/05/06 03:53:49;;;;;;;;;;;13.30;99.90;;;;;;5075042;28;19944;-79
2022/05/06 03:56:15;;;;;;;;;;;13.40;99.90;;;;;;5075025;28;19905;-78
2022/05/06 03:58:41;;;;;;;;;;;13.50;99.90;;;;;;5057000;28;19954;-76
2022/05/06 04:01:09;;;;;;;;;;;13.50;99.90;;;;;;5074906;28;20375;-79
2022/05/06 04:03:35;;;;;;;;;;;13.50;99.90;;;;;;5074823;28;20376;-78
2022/05/06 04:06:01;;;;;;;;;;;13.50;99.90;;;;;;5056829;28;19915;-78
2022/05/06 04:08:27;;;;;;;;;;;13.30;99.90;;;;;;5074786;28;19908;-79
2022/05/06 04:10:53;;;;;;;;;;;13.40;99.90;;;;;;5074628;28;19905;-77
2022/05/06 04:13:19;;;;;;;;;;;13.40;99.90;;;;;;5075046;28;19912;-78
2022/05/06 04:15:45;;;;;;;;;;;13.60;99.90;;;;;;5056680;28;19983;-76
2022/05/06 04:18:11;;;;;;;;;;;13.70;99.90;;;;;;5074626;28;19905;-77
2022/05/06 04:23:30;;;;;;;;;;;13.20;99.90;;;;;;5074211;28;20035;-80
2022/05/06 04:25:56;;;;;;;;;;;13.20;99.90;;;;;;5074493;28;19909;-78
2022/05/06 04:28:23;;;;;;;;;;;13.10;99.90;;;;;;5056428;28;19904;-78
2022/05/06 04:30:48;;;;;;;;;;;13.10;99.90;;;;;;5074324;28;19919;-76
2022/05/06 04:33:14;;;;;;;;;;;13.10;99.90;;;;;;5074409;28;19908;-77
2022/05/06 04:35:40;;;;;;;;;;;13.30;99.90;;;;;;5074244;28;19904;-76
2022/05/06 04:38:05;;;;;;;;;;;13.30;99.90;;;;;;5074007;28;19916;-77
2022/05/06 04:40:33;;;;;;;;;;;13.30;99.90;;;;;;5074352;28;19992;-79
2022/05/06 04:43:00;;;;;;;;;;;13.40;99.90;;;;;;5056161;28;19905;-77
2022/05/06 04:45:26;;;;;;;;;;;13.30;99.90;;;;;;5073955;28;19943;-78
2022/05/06 04:47:52;;;;;;;;;;;13.50;99.90;;;;;;5074033;28;19963;-77
2022/05/06 04:50:17;;;;;;;;;;;13.60;99.90;;;;;;5074309;28;19942;-78
2022/05/06 04:52:43;;;;;;;;;;;13.40;99.90;;;;;;5073942;28;19943;-76
2022/05/06 04:55:09;;;;;;;;;;;13.40;99.90;;;;;;5074042;28;20372;-76
2022/05/06 04:57:34;;;;;;;;;;;13.40;99.90;;;;;;5073707;28;19904;-76
2022/05/06 05:00:00;;;;;;;;;;;13.40;99.90;;;;;;5073898;28;19911;-77
2022/05/06 05:02:27;;;;;;;;;;;13.50;99.90;;;;;;5073791;28;20372;-79
2022/05/06 05:04:56;;;;;;;;;;;13.60;99.90;;;;;;5073931;28;19909;-77
2022/05/06 05:07:22;;;;;;;;;;;13.60;99.90;;;;;;5074045;28;19927;-79
2022/05/06 05:09:48;;;;;;;;;;;13.70;99.90;;;;;;5073794;28;20385;-77
2022/05/06 05:12:14;;;;;;;;;;;13.70;99.90;;;;;;5073681;28;19904;-78
2022/05/06 05:14:41;;;;;;;;;;;13.80;99.90;;;;;;5073665;28;20365;-77
2022/05/06 05:17:08;;;;;;;;;;;13.70;99.90;;;;;;5073731;28;20360;-80
2022/05/06 05:19:34;;;;;;;;;;;13.50;99.90;;;;;;5073777;28;19939;-78
2022/05/06 05:21:59;;;;;;;;;;;13.60;99.90;;;;;;5055645;28;19947;-79
2022/05/06 05:24:25;;;;;;;;;;;13.70;99.90;;;;;;5073506;28;19912;-78
2022/05/06 05:26:50;;;;;;;;;;;13.60;99.90;;;;;;5073582;28;20416;-77
2022/05/06 05:29:17;;;;;;;;;;;13.70;99.90;;;;;;5055399;28;20285;-76
2022/05/06 05:31:43;;;;;;;;;;;14.00;99.90;;;;;;5055561;28;19908;-78
2022/05/06 05:34:09;;;;;;;;;;;14.10;99.90;;;;;;5073652;28;20360;-77
2022/05/06 05:36:34;;;;;;;;;;;14.10;99.90;;;;;;5073958;28;19953;-76
2022/05/06 05:39:00;;;;;;;;;;;14.20;99.90;;;;;;5073152;28;19943;-78
2022/05/06 05:41:25;;;;;;;;;;;14.30;99.90;;;;;;5073546;28;20405;-77
2022/05/06 05:49:19;;;;;;;;;;;14.20;99.90;;;;;;5073120;28;20003;-77
2022/05/06 05:51:45;;;;;;;;;;;14.20;99.90;;;;;;5073331;28;19951;-78
2022/05/06 05:54:10;;;;;;;;;;;14.30;99.90;;;;;;5073256;28;19905;-76
2022/05/06 05:56:36;;;;;;;;;;;14.10;99.90;;;;;;5073457;28;19959;-79
2022/05/06 05:59:01;;;;;;;;;;;14.50;99.90;;;;;;5073521;28;19915;-78
2022/05/06 06:01:28;;;;;;;;;;;14.50;99.90;;;;;;5073320;28;19940;-79
2022/05/06 06:03:54;;;;;;;;;;;14.60;99.90;;;;;;5073248;28;19920;-78
2022/05/06 06:06:19;;;;;;;;;;;14.70;99.90;;;;;;5073249;28;19905;-78
2022/05/06 06:08:45;;;;;;;;;;;14.90;99.90;;;;;;5073216;28;19905;-77
2022/05/06 06:11:10;;;;;;;;;;;14.90;99.90;;;;;;5075585;28;20410;-78
2022/05/06 06:13:36;;;;;;;;;;;14.90;99.90;;;;;;5076994;28;19904;-77
2022/05/06 06:16:01;;;;;;;;;;;14.70;99.90;;;;;;5076846;28;19950;-78
2022/05/06 06:18:27;;;;;;;;;;;14.80;99.90;;;;;;5076887;28;20361;-77
2022/05/06 06:20:55;;;;;;;;;;;15.00;99.90;;;;;;5076963;28;19908;-77
2022/05/06 06:23:20;;;;;;;;;;;15.10;99.90;;;;;;5076981;28;19911;-77
2022/05/06 06:25:46;;;;;;;;;;;15.20;99.90;;;;;;5076670;28;20058;-78
2022/05/06 06:28:12;;;;;;;;;;;15.40;99.90;;;;;;5076762;28;20261;-77
2022/05/06 06:30:37;;;;;;;;;;;15.40;99.90;;;;;;5076949;28;19905;-77
2022/05/06 06:33:03;;;;;;;;;;;15.40;99.90;;;;;;5076754;28;19905;-76
2022/05/06 06:35:29;;;;;;;;;;;15.50;99.90;;;;;;5076570;28;19908;-78
2022/05/06 06:37:54;;;;;;;;;;;15.50;99.90;;;;;;5076351;28;19916;-78
2022/05/06 06:40:20;;;;;;;;;;;15.60;99.90;;;;;;5076495;28;19912;-78
2022/05/06 06:42:46;;;;;;;;;;;15.90;99.90;;;;;;5076866;28;20369;-77
2022/05/06 06:45:12;;;;;;;;;;;16.10;99.90;;;;;;5058370;28;19908;-78
2022/05/06 06:47:38;;;;;;;;;;;16.00;99.90;;;;;;5058374;28;20325;-75
2022/05/06 06:50:03;;;;;;;;;;;15.80;99.90;;;;;;5076303;28;19905;-78
2022/05/06 06:52:29;;;;;;;;;;;16.00;99.90;;;;;;5076208;28;19905;-79
2022/05/06 06:54:57;;;;;;;;;;;16.10;99.90;;;;;;5076161;28;19955;-76
2022/05/06 06:57:22;;;;;;;;;;;16.00;99.90;;;;;;5076291;28;19905;-78
2022/05/06 06:59:48;;;;;;;;;;;16.00;99.90;;;;;;5076107;28;20339;-79
2022/05/06 07:02:13;;;;;;;;;;;16.10;99.90;;;;;;5076060;28;19991;-80
2022/05/06 07:04:39;;;;;;;;;;;16.20;99.90;;;;;;5075933;28;19909;-79
2022/05/06 07:12:33;;;;;;;;;;;17.40;99.90;;;;;;5076004;28;19911;-77
2022/05/06 07:14:59;;;;;;;;;;;17.90;99.90;;;;;;5075833;28;20347;-77
2022/05/06 07:17:24;;;;;;;;;;;17.80;99.90;;;;;;5057739;28;19904;-79
2022/05/06 07:19:50;;;;;;;;;;;17.60;99.90;;;;;;5075674;28;19904;-79
2022/05/06 07:22:16;;;;;;;;;;;17.50;99.90;;;;;;5075663;28;19912;-77
2022/05/06 07:24:41;;;;;;;;;;;17.40;99.90;;;;;;5075592;28;19908;-78
2022/05/06 07:27:07;;;;;;;;;;;17.80;99.90;;;;;;5075643;28;19915;-77
2022/05/06 07:29:33;;;;;;;;;;;18.30;99.90;;;;;;5057655;28;19910;-76
2022/05/06 07:31:59;;;;;;;;;;;18.80;99.90;;;;;;5075543;28;19967;-78
2022/05/06 07:34:25;;;;;;;;;;;19.00;99.90;;;;;;5057884;28;19915;-80
2022/05/06 07:36:50;;;;;;;;;;;19.00;99.90;;;;;;5075830;28;19904;-78
2022/05/06 07:39:16;;;;;;;;;;;19.80;99.90;;;;;;5057177;28;19951;-78
2022/05/06 07:41:43;;;;;;;;;;;20.40;99.90;;;;;;5075936;28;19947;-78
2022/05/06 07:44:08;;;;;;;;;;;20.90;99.90;;;;;;5075188;28;20364;-80
2022/05/06 07:46:35;;;;;;;;;;;21.70;99.90;;;;;;5075698;28;19911;-78
2022/05/06 07:49:01;;;;;;;;;;;22.80;98.40;;;;;;5057273;28;19912;-80
2022/05/06 07:51:27;;;;;;;;;;;24.00;96.40;;;;;;5075182;28;19911;-78
2022/05/06 07:53:55;;;;;;;;;;;24.10;91.90;;;;;;5057195;28;19909;-77
2022/05/06 07:56:25;;;;;;;;;;;24.00;90.60;;;;;;5075250;28;20368;-79
2022/05/06 07:58:51;;;;;;;;;;;24.00;90.40;;;;;;5075148;28;20368;-78
2022/05/06 08:01:17;;;;;;;;;;;23.80;90.40;;;;;;5075489;28;20049;-79
2022/05/06 08:06:26;;;;;;;;;;;22.70;88.60;;;;;;5074854;28;19973;-78
2022/05/06 08:08:52;;;;;;;;;;;22.70;90.80;;;;;;5074875;28;20368;-78
2022/05/06 08:11:18;;;;;;;;;;;23.00;90.00;;;;;;5074792;28;19911;-80
2022/05/06 08:13:49;;;;;;;;;;;22.70;89.50;;;;;;5074743;28;19995;-78
2022/05/06 08:16:14;;;;;;;;;;;23.10;88.80;;;;;;5074964;28;20002;-76
2022/05/06 08:18:40;;;;;;;;;;;23.30;87.70;;;;;;5074730;28;20145;-78
2022/05/06 08:21:05;;;;;;;;;;;23.20;86.40;;;;;;5074759;28;19912;-79
2022/05/06 08:23:31;;;;;;;;;;;23.50;86.80;;;;;;5074465;28;19927;-79
2022/05/06 08:25:56;;;;;;;;;;;23.80;83.80;;;;;;5074405;28;19971;-80
2022/05/06 08:28:22;;;;;;;;;;;23.90;83.20;;;;;;5074377;28;19905;-79
2022/05/06 08:30:48;;;;;;;;;;;24.00;81.20;;;;;;5074351;28;20276;-79
2022/05/06 08:33:14;;;;;;;;;;;24.40;80.30;;;;;;5074178;28;19904;-77
2022/05/06 08:35:41;;;;;;;;;;;24.90;78.00;;;;;;5074237;28;19904;-79
2022/05/06 08:38:08;;;;;;;;;;;25.30;75.80;;;;;;5074193;28;19916;-79
2022/05/06 08:40:35;;;;;;;;;;;25.10;75.80;;;;;;5074203;28;19905;-79
2022/05/06 08:43:01;;;;;;;;;;;24.80;76.30;;;;;;5074399;28;19904;-81
2022/05/06 08:50:56;;;;;;;;;;;25.60;73.10;;;;;;5075467;28;19954;-79
2022/05/06 08:53:29;;;;;;;;;;;25.90;73.90;;;;;;5057897;28;19943;-79
2022/05/06 08:55:55;;;;;;;;;;;25.80;71.90;;;;;;5057326;28;20254;-81
2022/05/06 08:58:22;;;;;;;;;;;26.10;72.00;;;;;;5075007;28;19947;-79
2022/05/06 09:00:48;;;;;;;;;;;27.00;69.40;;;;;;5073900;28;19958;-78
2022/05/06 09:03:15;;;;;;;;;;;26.60;68.70;;;;;;5073880;28;19910;-82
2022/05/06 09:05:51;;;;;;;;;;;27.50;66.10;;;;;;5073918;28;19908;-78
2022/05/06 09:08:16;;;;;;;;;;;27.80;65.30;;;;;;5073853;28;19905;-82
2022/05/06 09:10:42;;;;;;;;;;;28.00;62.80;;;;;;5073882;28;19966;-82
2022/05/06 09:13:08;;;;;;;;;;;28.50;62.10;;;;;;5074052;28;19991;-81
2022/05/06 09:18:22;;;;;;;;;;;28.50;60.80;;;;;;5073485;28;19958;-80
2022/05/06 09:20:49;;;;;;;;;;;29.30;59.80;;;;;;5073968;28;20252;-82
2022/05/06 09:23:24;;;;;;;;;;;29.90;58.40;;;;;;5073677;28;19904;-82
2022/05/06 09:25:51;;;;;;;;;;;30.30;56.80;;;;;;5073584;28;19932;-79
2022/05/06 09:28:26;;;;;;;;;;;30.60;55.90;;;;;;5073587;28;20272;-80
2022/05/06 09:31:01;;;;;;;;;;;31.50;54.90;;;;;;5073862;28;19905;-82
2022/05/06 09:33:28;;;;;;;;;;;32.10;53.40;;;;;;5055516;28;20306;-83
2022/05/06 09:35:55;;;;;;;;;;;32.80;52.90;;;;;;5055551;28;19911;-82
2022/05/06 09:38:21;;;;;;;;;;;32.20;51.80;;;;;;5073350;28;19917;-80
2022/05/06 09:40:47;;;;;;;;;;;32.80;51.90;;;;;;5073478;28;19951;-83
2022/05/06 09:43:19;;;;;;;;;;;32.90;49.90;;;;;;5073545;28;20381;-81
2022/05/06 09:45:46;;;;;;;;;;;32.80;49.80;;;;;;5075280;28;19970;-84
2022/05/06 09:48:12;;;;;;;;;;;33.40;49.30;;;;;;5077749;28;19904;-82
2022/05/06 09:50:41;;;;;;;;;;;34.60;47.80;;;;;;5077604;28;19949;-83
2022/05/06 09:53:08;;;;;;;;;;;35.70;46.60;;;;;;5077425;28;19905;-81
2022/05/06 09:55:38;;;;;;;;;;;36.90;44.90;;;;;;5077499;28;19904;-79
2022/05/06 09:58:04;;;;;;;;;;;38.50;42.90;;;;;;5077418;28;19904;-83
2022/05/06 10:00:30;;;;;;;;;;;39.00;42.40;;;;;;5076766;28;19905;-80
2022/05/06 10:02:56;;;;;;;;;;;39.30;41.60;;;;;;5077290;28;19910;-79
2022/05/06 10:05:25;;;;;;;;;;;39.50;40.60;;;;;;5077387;28;19915;-79
2022/05/06 10:08:00;;;;;;;;;;;39.70;40.20;;;;;;5077189;28;19904;-81
2022/05/06 10:10:27;;;;;;;;;;;40.30;39.10;;;;;;5076971;28;19904;-80
2022/05/06 10:12:56;;;;;;;;;;;41.00;39.60;;;;;;5077373;28;20254;-80
2022/05/06 10:15:23;;;;;;;;;;;41.60;37.60;;;;;;5076903;28;19950;-80
2022/05/06 10:17:49;;;;;;;;;;;42.00;37.70;;;;;;5077010;28;20284;-79
2022/05/06 10:20:33;;;;;;;;;;;41.30;37.90;;;;;;5076857;28;19935;-80
2022/05/06 10:23:00;;;;;;;;;;;41.80;38.50;;;;;;5076854;28;19905;-80
2022/05/06 10:25:40;;;;;;;;;;;42.90;37.30;;;;;;5076979;28;19913;-79
2022/05/06 10:34:16;;;;;;;;;;;43.20;36.60;;;;;;5046006;28;20382;-78
2022/05/06 10:36:46;;;;;;;;;;;44.90;36.20;;;;;;5076634;28;19905;-80
2022/05/06 10:39:18;;;;;;;;;;;45.60;34.50;;;;;;5076010;28;19920;-78
2022/05/06 10:42:03;;;;;;;;;;;44.90;34.70;;;;;;5075647;28;20376;-78
2022/05/06 10:44:35;;;;;;;;;;;45.70;34.60;;;;;;5076153;28;19915;-78
2022/05/06 10:47:03;;;;;;;;;;;45.70;33.50;;;;;;5058433;28;19912;-77
2022/05/06 10:49:31;;;;;;;;;;;46.10;34.10;;;;;;5076458;28;20429;-80
2022/05/06 10:52:28;;;;;;;;;;;46.80;34.40;;;;;;5076333;28;20284;-79
2022/05/06 10:55:03;;;;;;;;;;;47.00;33.60;;;;;;5049869;28;19904;-78
2022/05/06 10:57:29;;;;;;;;;;;45.70;33.00;;;;;;5074857;28;19905;-76
2022/05/06 11:00:00;;;;;;;;;;;40.20;35.60;;;;;;5076795;28;20331;-78
2022/05/06 11:02:27;;;;;;;;;;;39.20;37.30;;;;;;5076119;28;19995;-80
2022/05/06 11:04:53;;;;;;;;;;;41.60;36.70;;;;;;5076037;28;19944;-78
2022/05/06 11:07:19;;;;;;;;;;;44.80;34.90;;;;;;5075974;28;19904;-76
2022/05/06 11:09:45;;;;;;;;;;;45.80;33.40;;;;;;5076155;28;20315;-78
2022/05/06 11:12:10;;;;;;;;;;;46.00;33.30;;;;;;5075920;28;19931;-77
2022/05/06 11:14:36;;;;;;;;;;;44.90;34.30;;;;;;5075877;28;19958;-76
2022/05/06 11:17:18;;;;;;;;;;;44.40;34.10;;;;;;5075796;28;19904;-77
2022/05/06 11:19:44;;;;;;;;;;;39.70;36.60;;;;;;5075811;28;19991;-77
2022/05/06 11:22:10;;;;;;;;;;;35.50;39.90;;;;;;5058224;28;20387;-77
2022/05/06 11:24:36;;;;;;;;;;;35.80;41.20;;;;;;5076098;28;19909;-77
2022/05/06 11:27:14;;;;;;;;;;;38.80;39.10;;;;;;5076051;28;19912;-78
2022/05/06 11:29:46;;;;;;;;;;;37.40;38.90;;;;;;5075774;28;19962;-76
2022/05/06 11:32:12;;;;;;;;;;;40.20;38.50;;;;;;5075574;28;19904;-79
2022/05/06 11:34:38;;;;;;;;;;;42.30;37.00;;;;;;5075505;28;19915;-77
2022/05/06 11:37:04;;;;;;;;;;;42.90;35.90;;;;;;5057395;28;20349;-76
2022/05/06 11:39:33;;;;;;;;;;;43.00;35.30;;;;;;5075732;28;19909;-79
2022/05/06 11:42:17;;;;;;;;;;;44.60;35.00;;;;;;5075379;28;19905;-78
2022/05/06 11:47:29;;;;;;;;;;;44.40;34.20;;;;;;5075266;28;19912;-78
2022/05/06 11:49:55;;;;;;;;;;;43.30;33.90;;;;;;5075221;28;19911;-77
2022/05/06 11:52:21;;;;;;;;;;;39.60;36.60;;;;;;5057077;28;19904;-78
2022/05/06 11:54:47;;;;;;;;;;;41.10;36.20;;;;;;5057178;28;20016;-78
2022/05/06 11:57:13;;;;;;;;;;;42.50;35.70;;;;;;5075020;28;20284;-78
2022/05/06 11:59:39;;;;;;;;;;;44.60;34.10;;;;;;5075018;28;20013;-77
2022/05/06 12:02:05;;;;;;;;;;;46.10;32.30;;;;;;5075006;28;20356;-78
2022/05/06 12:04:31;;;;;;;;;;;46.40;32.30;;;;;;5075063;28;19935;-75
2022/05/06 12:06:56;;;;;;;;;;;46.90;31.70;;;;;;5074878;28;19912;-80
2022/05/06 12:09:22;;;;;;;;;;;44.70;31.70;;;;;;5074052;28;19961;-79
2022/05/06 12:12:01;;;;;;;;;;;44.40;33.10;;;;;;5075196;28;19940;-78
2022/05/06 12:14:27;;;;;;;;;;;46.90;31.50;;;;;;5074743;28;19904;-77
2022/05/06 12:16:53;;;;;;;;;;;44.10;31.60;;;;;;5056722;28;20291;-77
2022/05/06 12:19:19;;;;;;;;;;;44.20;32.30;;;;;;5074622;28;19905;-78
2022/05/06 12:21:45;;;;;;;;;;;46.00;32.00;;;;;;5074485;28;19953;-76
2022/05/06 12:24:10;;;;;;;;;;;44.90;32.40;;;;;;5074693;28;19919;-77
2022/05/06 12:26:37;;;;;;;;;;;46.80;31.70;;;;;;5074461;28;19904;-78
2022/05/06 12:29:04;;;;;;;;;;;47.30;31.10;;;;;;5073468;28;19905;-76
2022/05/06 12:31:31;;;;;;;;;;;47.60;30.40;;;;;;5075075;28;20263;-80
2022/05/06 12:34:03;;;;;;;;;;;47.80;30.60;;;;;;5074884;28;20400;-78
2022/05/06 12:36:29;;;;;;;;;;;48.20;30.60;;;;;;5074547;28;19905;-76
2022/05/06 12:38:54;;;;;;;;;;;47.60;30.80;;;;;;5074183;28;19923;-77
2022/05/06 12:41:20;;;;;;;;;;;48.10;30.50;;;;;;5074350;28;19951;-79
2022/05/06 12:43:46;;;;;;;;;;;48.50;30.20;;;;;;5074448;28;19905;-78
2022/05/06 12:46:25;;;;;;;;;;;47.60;30.10;;;;;;5074059;28;19962;-79
2022/05/06 12:51:34;;;;;;;;;;;47.90;30.10;;;;;;5073253;28;19938;-76
2022/05/06 12:54:00;;;;;;;;;;;48.70;29.90;;;;;;5074001;28;19908;-80
2022/05/06 12:56:26;;;;;;;;;;;48.20;29.90;;;;;;5074087;28;19991;-78
2022/05/06 12:58:52;;;;;;;;;;;48.00;30.50;;;;;;5073723;28;20388;-78
2022/05/06 13:01:18;;;;;;;;;;;48.50;30.30;;;;;;5073965;28;19908;-77
2022/05/06 13:03:43;;;;;;;;;;;46.60;30.00;;;;;;5074412;28;19905;-77
2022/05/06 13:06:09;;;;;;;;;;;41.40;33.10;;;;;;5073895;28;20419;-77
2022/05/06 13:08:34;;;;;;;;;;;39.70;35.00;;;;;;5073793;28;20258;-75
2022/05/06 13:11:00;;;;;;;;;;;40.20;33.70;;;;;;5073935;28;19953;-78
2022/05/06 13:13:26;;;;;;;;;;;43.20;32.30;;;;;;5073235;28;19908;-80
2022/05/06 13:15:51;;;;;;;;;;;45.30;31.80;;;;;;5073527;28;20386;-80
2022/05/06 13:18:17;;;;;;;;;;;46.50;30.60;;;;;;5073738;28;19928;-78
2022/05/06 13:20:45;;;;;;;;;;;46.50;30.40;;;;;;5073606;28;19910;-76
2022/05/06 13:23:10;;;;;;;;;;;45.90;30.50;;;;;;5073650;28;19961;-77
2022/05/06 13:25:36;;;;;;;;;;;47.00;31.10;;;;;;5074098;28;19908;-78
2022/05/06 13:28:02;;;;;;;;;;;45.60;30.30;;;;;;5073900;28;20319;-76
2022/05/06 13:30:27;;;;;;;;;;;42.20;32.50;;;;;;5073610;28;19908;-77
2022/05/06 13:32:53;;;;;;;;;;;40.20;33.80;;;;;;5073602;28;19912;-78
2022/05/06 13:35:19;;;;;;;;;;;40.50;34.50;;;;;;5073589;28;19910;-77
2022/05/06 13:37:44;;;;;;;;;;;40.30;33.20;;;;;;5073518;28;20262;-77
2022/05/06 13:40:10;;;;;;;;;;;40.70;33.70;;;;;;5073569;28;19912;-77
2022/05/06 13:42:35;;;;;;;;;;;40.70;35.00;;;;;;5073722;28;20352;-78
2022/05/06 13:45:01;;;;;;;;;;;40.50;34.20;;;;;;5073339;28;19930;-78
2022/05/06 13:47:28;;;;;;;;;;;40.40;34.30;;;;;;5073545;28;19931;-77
2022/05/06 13:49:53;;;;;;;;;;;39.70;34.40;;;;;;5073510;28;20280;-79
2022/05/06 13:52:19;;;;;;;;;;;39.00;35.20;;;;;;5055389;28;19904;-76
2022/05/06 13:54:44;;;;;;;;;;;39.50;35.40;;;;;;5055339;28;19904;-77
2022/05/06 13:59:54;;;;;;;;;;;39.40;34.70;;;;;;5073070;28;19959;-77
2022/05/06 14:02:19;;;;;;;;;;;38.10;36.30;;;;;;5073282;28;19904;-77
2022/05/06 14:04:45;;;;;;;;;;;38.10;36.20;;;;;;5073182;28;19908;-77
2022/05/06 14:07:11;;;;;;;;;;;38.50;36.40;;;;;;5073835;28;19904;-78
2022/05/06 14:09:36;;;;;;;;;;;38.70;36.40;;;;;;5073180;28;19947;-78
2022/05/06 14:12:02;;;;;;;;;;;38.80;36.00;;;;;;5073148;28;20280;-77
2022/05/06 14:14:27;;;;;;;;;;;38.40;35.40;;;;;;5073149;28;19991;-77
2022/05/06 14:16:53;;;;;;;;;;;37.50;35.80;;;;;;5073152;28;20292;-76
2022/05/06 14:19:18;;;;;;;;;;;35.30;38.10;;;;;;5073736;28;19904;-77
2022/05/06 14:21:44;;;;;;;;;;;34.20;40.00;;;;;;5073528;28;20007;-76
2022/05/06 14:24:10;;;;;;;;;;;35.50;39.30;;;;;;5073337;28;19927;-79
2022/05/06 14:26:36;;;;;;;;;;;36.40;38.60;;;;;;5073752;28;19904;-78
2022/05/06 14:29:01;;;;;;;;;;;36.30;38.30;;;;;;5073113;28;20065;-78
2022/05/06 14:31:27;;;;;;;;;;;34.90;39.30;;;;;;5074704;28;19908;-77
2022/05/06 14:33:52;;;;;;;;;;;35.20;39.60;;;;;;5077300;28;20426;-78
2022/05/06 14:36:19;;;;;;;;;;;36.00;38.80;;;;;;5059555;28;19954;-79
2022/05/06 14:38:45;;;;;;;;;;;35.80;38.50;;;;;;5077287;28;19991;-76
2022/05/06 14:41:11;;;;;;;;;;;35.20;39.10;;;;;;5077801;28;20373;-78
2022/05/06 14:43:36;;;;;;;;;;;35.70;39.40;;;;;;5077311;28;19910;-75
2022/05/06 14:46:02;;;;;;;;;;;35.40;39.10;;;;;;5077552;28;19915;-77
2022/05/06 14:48:28;;;;;;;;;;;35.30;39.50;;;;;;5077518;28;20315;-78
2022/05/06 14:50:54;;;;;;;;;;;35.70;40.20;;;;;;5077149;28;19904;-79
2022/05/06 14:53:19;;;;;;;;;;;35.30;39.20;;;;;;5077571;28;20348;-78
2022/05/06 14:55:45;;;;;;;;;;;35.20;39.30;;;;;;5076990;28;20007;-77
2022/05/06 14:58:10;;;;;;;;;;;34.80;39.50;;;;;;5076939;28;19904;-78